createdAt,value
2022-08-03T00:01:37.916Z,100929.72
2022-08-03T00:04:06.429Z,100933.31
2022-08-03T00:06:37.136Z,100938.13
2022-08-03T00:09:07.991Z,100938.13
2022-08-03T00:11:36.835Z,100940.53
2022-08-03T00:14:07.327Z,100932.56
2022-08-03T00:16:34.815Z,100935.78
2022-08-03T00:19:02.613Z,100924.59
2022-08-03T00:21:29.826Z,100928.19
2022-08-03T00:23:57.214Z,100926.22
2022-08-03T00:26:24.562Z,100921.88
2022-08-03T00:28:51.908Z,100920.28
2022-08-03T00:31:26.490Z,100915.47
2022-08-03T00:34:06.922Z,100913.47
2022-08-03T00:36:34.194Z,100915.91
2022-08-03T00:39:01.711Z,100917.50
2022-08-03T00:41:29.082Z,100919.53
2022-08-03T00:43:56.508Z,100916.34
2022-08-03T00:46:23.645Z,100920.69
2022-08-03T00:48:51.515Z,100912.34
2022-08-03T00:51:20.166Z,100913.97
2022-08-03T00:53:47.591Z,100911.19
2022-08-03T00:56:15.923Z,100919.94
2022-08-03T00:58:45.440Z,100910.78
2022-08-03T01:01:13.044Z,100910.00
2022-08-03T01:03:40.944Z,100908.41
2022-08-03T01:06:17.781Z,100915.19
2022-08-03T01:08:54.855Z,100913.22
2022-08-03T01:12:00.811Z,100910.44
2022-08-03T01:14:41.854Z,100910.03
2022-08-03T01:17:32.357Z,100912.03
2022-08-03T01:20:08.469Z,100896.50
2022-08-03T01:22:53.732Z,100906.06
2022-08-03T01:25:42.167Z,100903.66
2022-08-03T01:28:47.566Z,100901.66
2022-08-03T01:31:19.334Z,100902.47
2022-08-03T01:33:53.091Z,100899.28
2022-08-03T01:36:34.157Z,100906.47
2022-08-03T01:39:05.313Z,100907.25
2022-08-03T01:41:35.495Z,100903.66
2022-08-03T01:44:30.066Z,100910.03
2022-08-03T01:46:54.659Z,100917.56
2022-08-03T01:49:22.766Z,100912.41
2022-08-03T01:51:58.553Z,100910.41
2022-08-03T01:54:43.510Z,100918.81
2022-08-03T01:57:11.702Z,100925.56
2022-08-03T01:59:40.540Z,100922.38
2022-08-03T02:02:27.823Z,100933.13
2022-08-03T02:04:58.819Z,100923.19
2022-08-03T02:07:27.459Z,100924.38
2022-08-03T02:09:56.111Z,100931.16
2022-08-03T02:12:28.050Z,100921.59
2022-08-03T02:14:57.307Z,100924.78
2022-08-03T02:17:39.466Z,100926.75
2022-08-03T02:20:10.079Z,100926.34
2022-08-03T02:22:40.558Z,100927.94
2022-08-03T02:25:10.885Z,100927.13
2022-08-03T02:27:43.781Z,100935.50
2022-08-03T02:30:14.071Z,100931.13
2022-08-03T02:32:46.141Z,100935.09
2022-08-03T02:35:18.324Z,100931.13
2022-08-03T02:37:50.736Z,100926.75
2022-08-03T02:40:20.792Z,100931.13
2022-08-03T02:42:51.759Z,100926.75
2022-08-03T02:45:21.307Z,100925.56
2022-08-03T02:47:53.588Z,100926.38
2022-08-03T02:50:24.269Z,100925.56
2022-08-03T02:52:53.503Z,100927.53
2022-08-03T02:55:23.183Z,100930.34
2022-08-03T02:57:52.026Z,100931.94
2022-08-03T03:00:27.309Z,100929.16
2022-08-03T03:03:00.658Z,100931.09
2022-08-03T03:05:55.894Z,100941.06
2022-08-03T03:08:26.793Z,100937.09
2022-08-03T03:10:59.689Z,100933.91
2022-08-03T03:13:29.254Z,100934.31
2022-08-03T03:16:00.971Z,100935.09
2022-08-03T03:18:31.334Z,100938.28
2022-08-03T03:21:01.052Z,100939.50
2022-08-03T03:23:29.460Z,100938.28
2022-08-03T03:25:58.732Z,100939.88
2022-08-03T03:28:26.073Z,100939.09
2022-08-03T03:30:53.663Z,100937.88
2022-08-03T03:33:22.352Z,100939.06
2022-08-03T03:35:50.654Z,100938.69
2022-08-03T03:38:19.063Z,100942.28
2022-08-03T03:40:46.861Z,100938.28
2022-08-03T03:43:14.131Z,100937.88
2022-08-03T03:45:45.323Z,100939.50
2022-08-03T03:48:12.810Z,100939.88
2022-08-03T03:50:41.166Z,100944.25
2022-08-03T03:53:12.611Z,100944.25
2022-08-03T03:55:58.925Z,100948.22
2022-08-03T03:58:28.126Z,100951.00
2022-08-03T04:00:55.410Z,100953.41
2022-08-03T04:03:22.774Z,100954.22
2022-08-03T04:06:08.800Z,100955.00
2022-08-03T04:08:54.365Z,100956.59
2022-08-03T04:11:34.720Z,100962.56
2022-08-03T04:14:10.203Z,100961.38
2022-08-03T04:16:43.876Z,100967.34
2022-08-03T04:19:23.132Z,100966.56
2022-08-03T04:21:53.584Z,100976.09
2022-08-03T04:24:28.253Z,100976.09
2022-08-03T04:26:57.784Z,100981.66
2022-08-03T04:29:26.859Z,100976.50
2022-08-03T04:31:56.142Z,100978.09
2022-08-03T04:34:23.315Z,100988.06
2022-08-03T04:36:56.090Z,100988.84
2022-08-03T04:39:27.502Z,100993.25
2022-08-03T04:42:07.329Z,100998.81
2022-08-03T04:44:42.345Z,100995.66
2022-08-03T04:47:09.734Z,100991.28
2022-08-03T04:49:38.522Z,101007.56
2022-08-03T04:52:08.839Z,101004.81
2022-08-03T04:54:48.803Z,101003.59
2022-08-03T04:57:22.955Z,101007.16
2022-08-03T05:00:01.332Z,101004.78
2022-08-03T05:02:30.590Z,101009.94
2022-08-03T05:04:58.098Z,101015.88
2022-08-03T05:07:25.635Z,101015.53
2022-08-03T05:10:01.764Z,101022.66
2022-08-03T05:12:33.750Z,101014.91
2022-08-03T05:15:02.025Z,101028.03
2022-08-03T05:17:29.375Z,101021.66
2022-08-03T05:19:57.055Z,101016.97
2022-08-03T05:22:24.539Z,101020.09
2022-08-03T05:24:51.836Z,101028.50
2022-08-03T05:27:22.151Z,101020.31
2022-08-03T05:29:50.873Z,101036.09
2022-08-03T05:32:18.667Z,101029.25
2022-08-03T05:34:46.243Z,101028.03
2022-08-03T05:37:13.369Z,101030.38
2022-08-03T05:39:40.685Z,101032.53
2022-08-03T05:42:08.219Z,101028.94
2022-08-03T05:44:38.852Z,101025.97
2022-08-03T05:47:06.518Z,101024.38
2022-08-03T05:49:33.945Z,101030.50
2022-08-03T05:52:13.369Z,101031.31
2022-08-03T05:54:55.315Z,101036.25
2022-08-03T05:57:24.947Z,101028.53
2022-08-03T05:59:53.934Z,101037.56
2022-08-03T06:02:27.452Z,101035.78
2022-08-03T06:04:54.877Z,101033.63
2022-08-03T06:07:22.071Z,101039.22
2022-08-03T06:10:34.084Z,101049.72
2022-08-03T06:12:36.506Z,101048.19
2022-08-03T06:15:07.873Z,101052.31
2022-08-03T06:17:46.399Z,101047.41
2022-08-03T06:20:13.719Z,101046.81
2022-08-03T06:22:50.980Z,101052.53
2022-08-03T06:25:21.206Z,101054.94
2022-08-03T06:27:48.704Z,101049.91
2022-08-03T06:30:21.021Z,101048.03
2022-08-03T06:32:52.195Z,101055.88
2022-08-03T06:35:20.297Z,101059.13
2022-08-03T06:37:50.792Z,101059.00
2022-08-03T06:40:21.764Z,101055.47
2022-08-03T06:42:51.777Z,101057.06
2022-08-03T06:45:18.936Z,101059.13
2022-08-03T06:47:46.185Z,101056.28
2022-08-03T06:50:17.156Z,101065.47
2022-08-03T06:52:45.622Z,101068.94
2022-08-03T06:55:12.843Z,101065.00
2022-08-03T06:57:40.069Z,101066.41
2022-08-03T07:00:12.299Z,101062.16
2022-08-03T07:02:40.445Z,101066.09
2022-08-03T07:05:09.311Z,101070.25
2022-08-03T07:07:37.156Z,101060.00
2022-08-03T07:10:06.103Z,101062.66
2022-08-03T07:12:34.254Z,101065.88
2022-08-03T07:15:03.494Z,101070.22
2022-08-03T07:17:33.334Z,101070.56
2022-08-03T07:20:04.697Z,101068.78
2022-08-03T07:22:32.034Z,101074.75
2022-08-03T07:24:59.517Z,101066.28
2022-08-03T07:27:28.773Z,101072.75
2022-08-03T07:29:57.015Z,101070.91
2022-08-03T07:32:24.985Z,101065.75
2022-08-03T07:34:55.725Z,101078.69
2022-08-03T07:37:25.734Z,101072.31
2022-08-03T07:39:52.858Z,101071.84
2022-08-03T07:42:20.771Z,101076.59
2022-08-03T07:44:48.028Z,101071.84
2022-08-03T07:50:17.782Z,101080.28
2022-08-03T07:52:52.275Z,101089.59
2022-08-03T07:55:24.697Z,101096.03
2022-08-03T07:58:01.654Z,101092.91
2022-08-03T08:00:29.469Z,101090.09
2022-08-03T08:02:56.882Z,101084.66
2022-08-03T08:05:24.603Z,101090.31
2022-08-03T08:07:51.954Z,101087.72
2022-08-03T08:10:19.553Z,101087.13
2022-08-03T08:12:46.874Z,101090.53
2022-08-03T08:15:14.157Z,101096.47
2022-08-03T08:18:01.695Z,101100.31
2022-08-03T08:20:33.259Z,101092.28
2022-08-03T08:23:17.298Z,101086.56
2022-08-03T08:25:56.376Z,101093.13
2022-08-03T08:28:32.511Z,101094.47
2022-08-03T08:31:02.063Z,101091.09
2022-08-03T08:33:47.894Z,101094.50
2022-08-03T08:36:16.896Z,101092.22
2022-08-03T08:38:45.347Z,101092.44
2022-08-03T08:41:14.548Z,101105.06
2022-08-03T08:43:42.668Z,101103.84
2022-08-03T08:46:23.355Z,101102.28
2022-08-03T08:48:52.574Z,101097.28
2022-08-03T08:51:21.882Z,101094.13
2022-08-03T08:53:52.879Z,101099.63
2022-08-03T08:56:23.150Z,101102.34
2022-08-03T08:58:58.662Z,101100.13
2022-08-03T09:01:26.284Z,101095.47
2022-08-03T09:03:54.498Z,101102.03
2022-08-03T09:06:23.112Z,101114.28
2022-08-03T09:08:50.408Z,101100.38
2022-08-03T09:11:21.750Z,101097.22
2022-08-03T09:14:10.323Z,101097.84
2022-08-03T09:17:02.554Z,101097.22
2022-08-03T09:19:31.494Z,101092.09
2022-08-03T09:22:13.258Z,101094.59
2022-08-03T09:25:35.281Z,101093.13
2022-08-03T09:27:53.433Z,101086.34
2022-08-03T09:30:33.917Z,101089.13
2022-08-03T09:33:08.413Z,101082.72
2022-08-03T09:35:54.397Z,101078.72
2022-08-03T09:38:24.437Z,101076.88
2022-08-03T09:40:55.901Z,101080.59
2022-08-03T09:43:26.413Z,101092.19
2022-08-03T09:46:03.808Z,101083.88
2022-08-03T09:48:32.168Z,101078.28
2022-08-03T09:51:13.180Z,101077.03
2022-08-03T09:53:58.460Z,101084.22
2022-08-03T09:56:43.414Z,101079.84
2022-08-03T09:59:23.976Z,101083.88
2022-08-03T10:01:51.183Z,101076.25
2022-08-03T10:04:18.480Z,101068.31
2022-08-03T10:06:47.154Z,101065.88
2022-08-03T10:09:17.106Z,101066.25
2022-08-03T10:11:44.990Z,101062.75
2022-08-03T10:14:19.683Z,101059.47
2022-08-03T10:16:48.589Z,101059.81
2022-08-03T10:19:16.952Z,101051.59
2022-08-03T10:21:58.226Z,101054.84
2022-08-03T10:24:28.481Z,101064.66
2022-08-03T10:27:07.680Z,101051.91
2022-08-03T10:29:39.992Z,101067.16
2022-08-03T10:32:21.480Z,101053.03
2022-08-03T10:35:00.225Z,101053.81
2022-08-03T10:37:32.627Z,101049.38
2022-08-03T10:40:01.142Z,101045.47
2022-08-03T10:42:31.539Z,101051.59
2022-08-03T10:45:09.995Z,101048.78
2022-08-03T10:47:37.883Z,101043.19
2022-08-03T10:50:06.408Z,101051.38
2022-08-03T10:52:36.081Z,101048.56
2022-08-03T10:55:51.185Z,101051.28
2022-08-03T10:58:53.479Z,101049.31
2022-08-03T11:01:58.498Z,101034.69
2022-08-03T11:04:26.983Z,101048.63
2022-08-03T11:07:16.227Z,101035.41
2022-08-03T11:09:48.800Z,101042.59
2022-08-03T11:12:32.233Z,101035.91
2022-08-03T11:15:02.777Z,101041.78
2022-08-03T11:17:30.596Z,101031.41
2022-08-03T11:19:58.636Z,101028.44
2022-08-03T11:22:46.363Z,101029.72
2022-08-03T11:25:53.357Z,101018.22
2022-08-03T11:28:28.825Z,101026.63
2022-08-03T11:30:56.158Z,101022.25
2022-08-03T11:33:32.490Z,101022.66
2022-08-03T11:36:02.698Z,101020.81
2022-08-03T11:38:30.507Z,101017.66
2022-08-03T11:40:57.706Z,101026.16
2022-08-03T11:43:31.556Z,101020.94
2022-08-03T11:46:12.782Z,101020.81
2022-08-03T11:48:44.948Z,101017.41
2022-08-03T11:51:29.561Z,101012.72
2022-08-03T11:54:04.922Z,101009.19
2022-08-03T11:56:45.591Z,101012.25
2022-08-03T11:59:20.737Z,101011.81
2022-08-03T12:01:49.345Z,101010.78
2022-08-03T12:04:17.810Z,101013.03
2022-08-03T12:07:01.396Z,101016.25
2022-08-03T12:09:28.759Z,101014.31
2022-08-03T12:12:00.613Z,101010.16
2022-08-03T12:14:49.817Z,101001.94
2022-08-03T12:17:19.254Z,101014.50
2022-08-03T12:19:46.808Z,101008.22
2022-08-03T12:22:16.239Z,100997.34
2022-08-03T12:24:46.921Z,100999.72
2022-08-03T12:27:28.281Z,101002.84
2022-08-03T12:29:59.359Z,101006.69
2022-08-03T12:32:28.080Z,101005.94
2022-08-03T12:35:00.036Z,101000.97
2022-08-03T12:37:28.005Z,101004.50
2022-08-03T12:40:01.751Z,101002.06
2022-08-03T12:42:34.911Z,100999.44
2022-08-03T12:45:21.544Z,100997.34
2022-08-03T12:47:58.843Z,100994.97
2022-08-03T12:50:29.018Z,100992.06
2022-08-03T12:52:58.111Z,100987.53
2022-08-03T12:55:27.806Z,100994.31
2022-08-03T12:57:55.056Z,100983.09
2022-08-03T13:00:29.453Z,100989.84
2022-08-03T13:03:38.283Z,100994.53
2022-08-03T13:05:53.517Z,100992.53
2022-08-03T13:08:23.182Z,100991.06
2022-08-03T13:10:50.791Z,100993.63
2022-08-03T13:13:18.026Z,100986.75
2022-08-03T13:15:48.103Z,100980.56
2022-08-03T13:18:17.216Z,100980.66
2022-08-03T13:20:45.060Z,100980.34
2022-08-03T13:23:13.885Z,100980.44
2022-08-03T13:25:55.585Z,100984.41
2022-08-03T13:28:23.646Z,100975.84
2022-08-03T13:30:51.012Z,100972.69
2022-08-03T13:33:18.516Z,100969.94
2022-08-03T13:35:45.793Z,100974.91
2022-08-03T13:38:12.939Z,100975.69
2022-08-03T13:40:42.625Z,100973.16
2022-08-03T13:43:09.857Z,100972.53
2022-08-03T13:45:37.189Z,100971.28
2022-08-03T13:48:04.829Z,100969.63
2022-08-03T13:50:32.508Z,100969.31
2022-08-03T13:52:59.640Z,100968.16
2022-08-03T13:55:27.008Z,100965.84
2022-08-03T13:58:02.243Z,100969.03
2022-08-03T14:00:35.260Z,100963.88
2022-08-03T14:03:09.552Z,100958.94
2022-08-03T14:05:40.466Z,100955.97
2022-08-03T14:08:08.159Z,100955.34
2022-08-03T14:10:37.513Z,100965.75
2022-08-03T14:13:05.630Z,100949.72
2022-08-03T14:15:38.315Z,100959.50
2022-08-03T14:18:15.323Z,100964.13
2022-08-03T14:20:49.102Z,100960.22
2022-08-03T14:23:21.959Z,100959.97
2022-08-03T14:25:52.084Z,100945.03
2022-08-03T14:28:23.287Z,100951.69
2022-08-03T14:30:52.679Z,100942.44
2022-08-03T14:33:20.241Z,100939.81
2022-08-03T14:35:48.337Z,100945.22
2022-08-03T14:38:15.689Z,100942.66
2022-08-03T14:40:43.095Z,100939.13
2022-08-03T14:43:10.391Z,100933.03
2022-08-03T14:45:37.515Z,100933.41
2022-08-03T14:50:30.828Z,100925.22
2022-08-03T14:50:56.934Z,100924.13
2022-08-03T14:53:25.920Z,100921.91
2022-08-03T14:55:53.713Z,100930.13
2022-08-03T14:58:25.592Z,100933.44
2022-08-03T15:00:55.014Z,100928.00
2022-08-03T15:03:24.996Z,100934.00
2022-08-03T15:05:54.335Z,100935.94
2022-08-03T15:08:23.844Z,100938.03
2022-08-03T15:10:51.802Z,100935.78
2022-08-03T15:13:24.249Z,100937.72
2022-08-03T15:15:52.288Z,100937.75
2022-08-03T15:18:22.198Z,100943.38
2022-08-03T15:20:50.976Z,100946.34
2022-08-03T15:23:18.931Z,100947.22
2022-08-03T15:26:29.454Z,100962.84
2022-08-03T15:28:34.436Z,100954.53
2022-08-03T15:31:05.780Z,100962.09
2022-08-03T15:33:33.527Z,100970.13
2022-08-03T15:36:03.572Z,100967.78
2022-08-03T15:38:30.990Z,100968.50
2022-08-03T15:40:59.321Z,100966.72
2022-08-03T15:43:26.631Z,100962.22
2022-08-03T15:46:26.482Z,100959.38
2022-08-03T15:48:41.885Z,100966.59
2022-08-03T15:51:09.479Z,100955.91
2022-08-03T15:53:38.120Z,100960.19
2022-08-03T15:56:11.315Z,100955.91
2022-08-03T15:59:03.690Z,100961.94
2022-08-03T16:01:28.591Z,100956.72
2022-08-03T16:03:55.811Z,100958.28
2022-08-03T16:06:35.534Z,100959.84
2022-08-03T16:09:23.558Z,100963.41
2022-08-03T16:11:55.756Z,100964.91
2022-08-03T16:14:32.687Z,100959.59
2022-08-03T16:17:03.630Z,100952.28
2022-08-03T16:19:30.790Z,100952.69
2022-08-03T16:21:58.014Z,100958.03
2022-08-03T16:24:27.743Z,100954.19
2022-08-03T16:26:56.095Z,100953.41
2022-08-03T16:29:23.779Z,100953.69
2022-08-03T16:31:52.392Z,100950.50
2022-08-03T16:34:20.652Z,100955.69
2022-08-03T16:36:48.084Z,100952.53
2022-08-03T16:39:15.573Z,100956.91
2022-08-03T16:41:54.092Z,100953.72
2022-08-03T16:44:30.153Z,100958.09
2022-08-03T16:46:58.123Z,100956.91
2022-08-03T16:49:55.544Z,100950.59
2022-08-03T16:52:13.231Z,100953.50
2022-08-03T16:54:40.859Z,100953.19
2022-08-03T16:57:12.494Z,100948.50
2022-08-03T16:59:39.737Z,100953.28
2022-08-03T17:02:10.403Z,100956.47
2022-08-03T17:04:40.097Z,100953.78
2022-08-03T17:07:08.852Z,100951.44
2022-08-03T17:09:38.151Z,100949.88
2022-08-03T17:12:07.230Z,100949.09
2022-08-03T17:14:34.549Z,100953.13
2022-08-03T17:17:04.061Z,100963.09
2022-08-03T17:19:32.759Z,100969.53
2022-08-03T17:22:09.094Z,100965.97
2022-08-03T17:24:41.196Z,100973.09
2022-08-03T17:28:42.363Z,100968.66
2022-08-03T17:30:09.645Z,100979.44
2022-08-03T17:32:42.901Z,100983.00
2022-08-03T17:35:21.290Z,100975.88
2022-08-03T17:37:58.406Z,100983.88
2022-08-03T17:40:31.677Z,100980.72
2022-08-03T17:43:00.976Z,100986.34
2022-08-03T17:45:52.011Z,100979.59
2022-08-03T17:48:18.586Z,100977.63
2022-08-03T17:50:55.910Z,100974.41
2022-08-03T17:53:33.298Z,100982.41
2022-08-03T17:56:40.293Z,100990.00
2022-08-03T17:59:08.606Z,100998.41
2022-08-03T18:05:17.943Z,100994.91
2022-08-03T18:08:01.455Z,100996.91
2022-08-03T18:10:35.236Z,101001.34
2022-08-03T18:13:14.418Z,101005.72
2022-08-03T18:15:58.848Z,101003.31
2022-08-03T18:18:43.216Z,101008.13
2022-08-03T18:21:16.955Z,101007.72
2022-08-03T18:23:46.113Z,101012.53
2022-08-03T18:26:18.325Z,101014.53
2022-08-03T18:28:45.512Z,101015.75
2022-08-03T18:31:59.895Z,101020.94
2022-08-03T18:34:19.729Z,101019.34
2022-08-03T18:36:55.812Z,101024.94
2022-08-03T18:39:23.512Z,101020.16
2022-08-03T18:41:51.942Z,101024.16
2022-08-03T18:44:46.448Z,101016.56
2022-08-03T18:47:50.878Z,101020.94
2022-08-03T18:50:34.039Z,101019.75
2022-08-03T18:54:04.025Z,101022.13
2022-08-03T18:56:22.406Z,101024.50
2022-08-03T18:59:38.920Z,101034.50
2022-08-03T19:02:09.244Z,101044.44
2022-08-03T19:04:47.000Z,101037.28
2022-08-03T19:07:23.384Z,101044.44
2022-08-03T19:09:58.658Z,101036.47
2022-08-03T19:12:48.651Z,101041.63
2022-08-03T19:15:15.976Z,101043.66
2022-08-03T19:17:53.696Z,101062.78
2022-08-03T19:20:25.167Z,101048.81
2022-08-03T19:22:54.144Z,101053.59
2022-08-03T19:25:34.849Z,101062.78
2022-08-03T19:28:06.036Z,101068.72
2022-08-03T19:33:29.847Z,101063.09
2022-08-03T19:36:01.536Z,101063.94
2022-08-03T19:38:29.811Z,101068.69
2022-08-03T19:41:04.504Z,101068.69
2022-08-03T19:43:52.542Z,101075.88
2022-08-03T19:46:31.642Z,101083.06
2022-08-03T19:49:10.724Z,101085.47
2022-08-03T19:51:58.391Z,101079.09
2022-08-03T19:54:39.671Z,101076.28
2022-08-03T19:57:19.478Z,101082.69
2022-08-03T19:59:50.066Z,101076.28
2022-08-03T20:02:27.176Z,101080.28
2022-08-03T20:04:57.474Z,101082.28
2022-08-03T20:07:26.540Z,101082.28
2022-08-03T20:09:56.453Z,101084.28
2022-08-03T20:12:32.149Z,101080.69
2022-08-03T20:15:04.271Z,101085.50
2022-08-03T20:17:54.670Z,101094.28
2022-08-03T20:20:28.806Z,101092.25
2022-08-03T20:22:58.421Z,101095.84
2022-08-03T20:25:37.934Z,101081.50
2022-08-03T20:28:13.865Z,101085.91
2022-08-03T20:30:47.496Z,101089.91
2022-08-03T20:36:04.518Z,101079.53
2022-08-03T20:38:31.947Z,101083.94
2022-08-03T20:40:59.326Z,101083.94
2022-08-03T20:43:27.472Z,101074.78
2022-08-03T20:46:01.138Z,101077.53
2022-08-03T20:48:48.536Z,101077.53
2022-08-03T20:51:19.966Z,101080.75
2022-08-03T20:53:59.485Z,101080.75
2022-08-03T20:56:34.608Z,101081.94
2022-08-03T20:59:04.553Z,101069.19
2022-08-03T21:01:36.355Z,101079.97
2022-08-03T21:04:07.056Z,101082.34
2022-08-03T21:06:42.111Z,101079.56
2022-08-03T21:09:19.819Z,101067.19
2022-08-03T21:11:52.724Z,101074.38
2022-08-03T21:13:02.301Z,101065.13
2022-08-03T21:13:05.488Z,100992.84
2022-08-03T21:13:07.091Z,101088.31
2022-08-03T21:14:28.066Z,101074.75
2022-08-03T21:16:58.362Z,101069.56
2022-08-03T21:19:30.605Z,101079.97
2022-08-03T21:21:59.369Z,101075.56
2022-08-03T21:24:30.750Z,101078.38
2022-08-03T21:26:58.782Z,101071.59
2022-08-03T21:29:27.218Z,101068.00
2022-08-03T21:31:55.079Z,101069.16
2022-08-03T21:34:23.655Z,101074.78
2022-08-03T21:36:50.960Z,101074.38
2022-08-03T21:39:18.206Z,101082.31
2022-08-03T21:41:45.658Z,101079.16
2022-08-03T21:44:12.813Z,101075.94
2022-08-03T21:46:41.398Z,101075.94
2022-08-03T21:50:02.669Z,101074.78
2022-08-03T21:52:00.778Z,101075.56
2022-08-03T21:54:36.455Z,101075.16
2022-08-03T21:57:06.336Z,101071.16
2022-08-03T21:59:38.242Z,101079.53
2022-08-03T22:02:22.706Z,101081.53
2022-08-03T22:04:55.552Z,101067.56
2022-08-03T22:07:28.811Z,101074.34
2022-08-03T22:09:57.735Z,101074.34
2022-08-03T22:12:26.851Z,101071.94
2022-08-03T22:15:00.219Z,101074.31
2022-08-03T22:17:54.637Z,101066.34
2022-08-03T22:20:19.517Z,101069.13
2022-08-03T22:22:55.174Z,101062.75
2022-08-03T22:25:29.863Z,101063.53
2022-08-03T22:28:00.554Z,101062.34
2022-08-03T22:30:28.579Z,101066.34
2022-08-03T22:32:56.496Z,101062.34
2022-08-03T22:35:27.707Z,101067.09
2022-08-03T22:37:57.246Z,101069.13
2022-08-03T22:40:26.174Z,101070.72
2022-08-03T22:42:54.711Z,101071.16
2022-08-03T22:46:07.301Z,101065.19
2022-08-03T22:48:10.026Z,101065.56
2022-08-03T22:50:37.500Z,101070.38
2022-08-03T22:53:06.449Z,101062.00
2022-08-03T22:55:33.699Z,101066.00
2022-08-03T22:58:00.788Z,101056.41
2022-08-03T23:00:27.925Z,101061.22
2022-08-03T23:02:57.200Z,101066.00
2022-08-03T23:06:01.825Z,101063.19
2022-08-03T23:08:21.921Z,101061.19
2022-08-03T23:10:50.802Z,101052.00
2022-08-03T23:13:19.216Z,101052.00
2022-08-03T23:15:57.955Z,101050.41
2022-08-03T23:18:28.877Z,101049.19
2022-08-03T23:20:59.879Z,101050.81
2022-08-03T23:23:29.392Z,101051.19
2022-08-03T23:26:13.556Z,101040.84
2022-08-03T23:28:45.399Z,101048.03
2022-08-03T23:31:18.908Z,101046.03
2022-08-03T23:33:47.352Z,101048.44
2022-08-03T23:36:30.753Z,101044.47
2022-08-03T23:39:02.392Z,101044.50
2022-08-03T23:41:31.464Z,101046.50
2022-08-03T23:44:01.069Z,101038.56
2022-08-03T23:46:30.580Z,101038.94
2022-08-03T23:49:00.906Z,101043.31
2022-08-03T23:51:45.166Z,101050.09
2022-08-03T23:54:41.763Z,101050.91
2022-08-03T23:57:46.322Z,101049.78
